Time;durP1;ratioP1;P1;durP2;ratioP2;P2;SDS_P1;SDS_P2;PMS_P1;PMS_P2;Temp;Humidity;BMP_temperature;BMP_pressure;BME280_temperature;BME280_humidity;BME280_pressure;Samples;Min_cycle;Max_cycle;Signal;HPM_P1;HPM_P2
2021/03/30 00:01:42;;;;;;;2.28;1.33;;;12.20;99.90;;;;;;4955086;29;20162;-76
2021/03/30 00:04:08;;;;;;;3.58;2.38;;;12.10;99.90;;;;;;4955187;29;20174;-75
2021/03/30 00:06:33;;;;;;;1.45;1.40;;;12.20;99.90;;;;;;4954912;29;20166;-76
2021/03/30 00:08:59;;;;;;;1.33;1.33;;;12.20;99.90;;;;;;4955047;29;20186;-75
2021/03/30 00:11:25;;;;;;;2.83;2.28;;;12.20;99.90;;;;;;4955153;29;20181;-74
2021/03/30 00:13:50;;;;;;;4.63;2.22;;;12.10;99.90;;;;;;4955050;29;20669;-76
2021/03/30 00:16:16;;;;;;;13.20;2.53;;;12.00;99.90;;;;;;4955253;29;20174;-76
2021/03/30 00:18:41;;;;;;;4.93;2.95;;;11.80;99.90;;;;;;4954847;29;20666;-75
2021/03/30 00:21:08;;;;;;;1.80;1.70;;;11.80;99.90;;;;;;4960020;28;20537;-75
2021/03/30 00:23:33;;;;;;;1.63;1.52;;;11.80;99.90;;;;;;4974192;28;20166;-75
2021/03/30 00:25:59;;;;;;;0.93;0.88;;;11.80;99.90;;;;;;4974129;28;20162;-76
2021/03/30 00:28:25;;;;;;;6.40;2.92;;;11.90;99.90;;;;;;4974118;28;20186;-76
2021/03/30 00:30:51;;;;;;;5.57;2.80;;;11.90;99.90;;;;;;4974063;28;20170;-75
2021/03/30 00:33:17;;;;;;;1.92;1.58;;;11.80;99.90;;;;;;4956833;28;20605;-75
2021/03/30 00:35:42;;;;;;;2.03;1.88;;;11.70;99.90;;;;;;4974098;28;20179;-75
2021/03/30 00:38:09;;;;;;;2.78;2.28;;;11.70;99.90;;;;;;4973891;28;20265;-76
2021/03/30 00:40:36;;;;;;;11.57;2.30;;;11.40;99.90;;;;;;4974126;28;20163;-75
2021/03/30 00:43:02;;;;;;;3.13;2.88;;;11.40;99.90;;;;;;4973974;28;20155;-76
2021/03/30 00:45:27;;;;;;;2.30;2.05;;;11.40;99.90;;;;;;4974218;28;20220;-76
2021/03/30 00:47:53;;;;;;;9.32;2.10;;;11.30;99.90;;;;;;4973790;28;20360;-76
2021/03/30 00:50:21;;;;;;;3.80;1.50;;;11.30;99.90;;;;;;4973929;28;20190;-76
2021/03/30 00:52:47;;;;;;;5.25;2.22;;;11.20;99.90;;;;;;4956661;28;20610;-75
2021/03/30 00:55:15;;;;;;;2.50;2.30;;;11.30;99.90;;;;;;4973850;28;20220;-76
2021/03/30 00:57:41;;;;;;;2.38;2.17;;;11.30;99.90;;;;;;4973789;28;20252;-74
2021/03/30 01:00:10;;;;;;;3.38;1.73;;;11.30;99.90;;;;;;4973963;28;20155;-74
2021/03/30 01:02:36;;;;;;;6.45;2.15;;;11.10;99.90;;;;;;4974090;28;20173;-74
2021/03/30 01:05:02;;;;;;;8.25;2.20;;;11.20;99.90;;;;;;4974019;28;20673;-74
2021/03/30 01:07:28;;;;;;;7.35;2.50;;;11.20;99.90;;;;;;4977413;28;20599;-75
2021/03/30 01:10:43;;;;;;;2.08;1.60;;;11.30;99.90;;;;;;4977406;28;20169;-76
2021/03/30 01:13:46;;;;;;;1.23;1.13;;;11.40;99.90;;;;;;4969505;28;20178;-76
2021/03/30 01:16:26;;;;;;;3.75;2.45;;;11.30;99.90;;;;;;4977193;28;20635;-74
2021/03/30 01:19:13;;;;;;;5.30;3.30;;;11.10;99.90;;;;;;4976940;28;20296;-77
2021/03/30 01:22:01;;;;;;;3.60;1.60;;;10.90;99.90;;;;;;4977176;28;20224;-76
2021/03/30 01:24:36;;;;;;;1.50;1.30;;;10.90;99.90;;;;;;4977080;28;20292;-76
2021/03/30 01:27:20;;;;;;;8.40;2.20;;;10.80;99.90;;;;;;4976881;28;20201;-75
2021/03/30 01:29:53;;;;;;;4.43;2.17;;;10.80;99.90;;;;;;4976998;28;20158;-75
2021/03/30 01:32:35;;;;;;;1.67;1.55;;;10.80;99.90;;;;;;4976971;28;20260;-75
2021/03/30 01:35:03;;;;;;;1.23;1.20;;;10.80;99.90;;;;;;4959531;28;20170;-75
2021/03/30 01:37:30;;;;;;;19.42;3.58;;;10.80;99.90;;;;;;4976763;28;20212;-75
2021/03/30 01:39:59;;;;;;;3.00;2.33;;;10.70;99.90;;;;;;4976849;28;20256;-74
2021/03/30 01:42:29;;;;;;;1.45;1.35;;;10.70;99.90;;;;;;4959397;28;20193;-75
2021/03/30 01:44:56;;;;;;;6.60;3.03;;;10.70;99.90;;;;;;4976665;28;20216;-74
2021/03/30 01:47:23;;;;;;;2.75;1.73;;;10.70;99.90;;;;;;4976275;28;20681;-74
2021/03/30 01:49:49;;;;;;;2.78;2.58;;;10.60;99.90;;;;;;4976962;28;20170;-75
2021/03/30 01:52:17;;;;;;;6.90;2.15;;;10.40;99.90;;;;;;4976590;28;20170;-74
2021/03/30 01:54:45;;;;;;;2.10;1.95;;;10.40;99.90;;;;;;4959148;28;20174;-74
2021/03/30 01:57:12;;;;;;;2.90;2.58;;;10.50;99.90;;;;;;4976397;28;20252;-75
2021/03/30 01:59:42;;;;;;;1.08;1.08;;;10.40;99.90;;;;;;4976529;28;20569;-76
2021/03/30 02:02:08;;;;;;;4.28;2.85;;;10.40;99.90;;;;;;4976531;28;20166;-76
2021/03/30 02:04:36;;;;;;;8.52;1.58;;;10.30;99.90;;;;;;4976411;28;20166;-75
2021/03/30 02:07:04;;;;;;;1.50;1.50;;;10.30;99.90;;;;;;4976225;28;20197;-75
2021/03/30 02:09:35;;;;;;;2.15;1.23;;;10.30;99.90;;;;;;4976589;28;20162;-75
2021/03/30 02:12:08;;;;;;;3.92;2.08;;;10.30;99.90;;;;;;4976296;28;20256;-75
2021/03/30 02:14:34;;;;;;;2.13;2.03;;;10.20;99.90;;;;;;4976178;28;20252;-76
2021/03/30 02:17:21;;;;;;;1.90;1.80;;;10.30;99.90;;;;;;4975637;28;20301;-76
2021/03/30 02:20:25;;;;;;;1.67;1.33;;;10.10;99.90;;;;;;4976132;28;20525;-76
2021/03/30 02:23:03;;;;;;;2.00;1.90;;;10.20;99.90;;;;;;4971849;28;20214;-76
2021/03/30 02:25:30;;;;;;;2.75;1.60;;;10.30;99.90;;;;;;4976078;28;20244;-76
2021/03/30 02:28:02;;;;;;;6.40;2.10;;;10.40;99.90;;;;;;4976021;28;20620;-76
2021/03/30 02:30:29;;;;;;;2.88;2.13;;;10.30;99.90;;;;;;4976027;28;20190;-75
2021/03/30 02:32:57;;;;;;;5.78;2.85;;;10.30;99.90;;;;;;4976094;28;20158;-76
2021/03/30 02:35:24;;;;;;;2.25;2.05;;;10.10;99.90;;;;;;4975852;28;20162;-76
2021/03/30 02:37:50;;;;;;;4.53;3.20;;;9.90;99.90;;;;;;4975620;28;20217;-74
2021/03/30 02:40:17;;;;;;;1.05;0.88;;;9.90;99.90;;;;;;4975736;28;20169;-76
2021/03/30 02:42:46;;;;;;;3.53;1.85;;;10.00;99.90;;;;;;4975728;28;20162;-76
2021/03/30 02:45:13;;;;;;;3.00;0.60;;;10.10;99.90;;;;;;4975601;28;20194;-77
2021/03/30 02:47:41;;;;;;;2.25;2.05;;;9.90;99.90;;;;;;4975436;28;20253;-77
2021/03/30 02:50:09;;;;;;;1.63;1.52;;;9.80;99.90;;;;;;4975553;28;20155;-76
2021/03/30 02:52:35;;;;;;;3.47;2.85;;;9.80;99.90;;;;;;4975355;28;20711;-77
2021/03/30 02:55:03;;;;;;;3.60;1.77;;;9.80;99.90;;;;;;4975460;28;20166;-76
2021/03/30 02:57:30;;;;;;;4.68;1.70;;;9.80;99.90;;;;;;4975202;28;20224;-76
2021/03/30 02:59:56;;;;;;;2.50;2.17;;;9.70;99.90;;;;;;4975483;28;20162;-76
2021/03/30 03:02:24;;;;;;;1.50;1.40;;;9.50;99.90;;;;;;4975293;28;20198;-76
2021/03/30 03:04:50;;;;;;;2.05;1.85;;;9.50;99.90;;;;;;4975323;28;20174;-76
2021/03/30 03:07:16;;;;;;;3.15;1.55;;;9.50;99.90;;;;;;4975160;28;20252;-76
2021/03/30 03:09:42;;;;;;;1.63;1.05;;;9.60;99.90;;;;;;4975185;28;20160;-76
2021/03/30 03:12:09;;;;;;;2.85;1.58;;;9.60;99.90;;;;;;4975231;28;20170;-76
2021/03/30 03:14:38;;;;;;;3.20;1.30;;;9.40;99.90;;;;;;4975205;28;20166;-77
2021/03/30 03:17:04;;;;;;;1.85;1.73;;;9.50;99.90;;;;;;4975313;28;20251;-76
2021/03/30 03:19:31;;;;;;;3.63;1.63;;;9.60;99.90;;;;;;4974996;28;20181;-76
2021/03/30 03:21:57;;;;;;;4.82;2.00;;;9.40;99.90;;;;;;4974969;28;20201;-76
2021/03/30 03:24:23;;;;;;;3.60;3.40;;;9.40;99.90;;;;;;4957384;28;20202;-76
2021/03/30 03:26:48;;;;;;;0.82;0.82;;;9.30;99.90;;;;;;4974765;28;20193;-76
2021/03/30 03:29:19;;;;;;;1.48;1.17;;;9.30;99.90;;;;;;4974803;28;20162;-76
2021/03/30 03:31:46;;;;;;;2.10;2.00;;;9.30;99.90;;;;;;4974769;28;20209;-76
2021/03/30 03:34:12;;;;;;;4.05;2.25;;;9.10;99.90;;;;;;4974729;28;20567;-76
2021/03/30 03:36:43;;;;;;;2.80;2.55;;;9.00;99.90;;;;;;4974659;28;20222;-76
2021/03/30 03:39:11;;;;;;;1.13;1.13;;;9.00;99.90;;;;;;4974724;28;20260;-77
2021/03/30 03:41:38;;;;;;;2.13;1.92;;;9.00;99.90;;;;;;4974631;28;20204;-77
2021/03/30 03:44:04;;;;;;;3.92;2.40;;;9.10;99.90;;;;;;4974519;28;20184;-76
2021/03/30 03:46:30;;;;;;;2.17;1.90;;;9.20;99.90;;;;;;4974469;28;20225;-76
2021/03/30 03:48:56;;;;;;;7.47;2.50;;;9.30;99.90;;;;;;4974496;28;20536;-77
2021/03/30 03:51:23;;;;;;;2.35;2.17;;;9.20;99.90;;;;;;4974263;28;20170;-76
2021/03/30 03:53:52;;;;;;;5.55;2.13;;;9.00;99.90;;;;;;4974502;28;20162;-77
2021/03/30 03:56:28;;;;;;;4.35;1.73;;;9.10;99.90;;;;;;4956966;28;20265;-77
2021/03/30 03:59:00;;;;;;;7.15;1.55;;;9.10;99.90;;;;;;4974303;28;20197;-77
2021/03/30 04:01:32;;;;;;;1.38;1.35;;;9.20;99.90;;;;;;4974509;28;20216;-77
2021/03/30 04:04:02;;;;;;;1.10;1.02;;;9.20;99.90;;;;;;4974394;28;20170;-77
2021/03/30 04:06:31;;;;;;;2.97;1.67;;;9.30;99.90;;;;;;4974276;28;20162;-77
2021/03/30 04:09:00;;;;;;;2.08;1.77;;;9.20;99.90;;;;;;4974362;28;20625;-77
2021/03/30 04:11:27;;;;;;;2.20;2.10;;;9.20;99.90;;;;;;4974174;28;20625;-76
2021/03/30 04:13:53;;;;;;;2.58;1.73;;;9.30;99.90;;;;;;4974346;28;20254;-77
2021/03/30 04:16:20;;;;;;;1.27;1.25;;;9.20;99.90;;;;;;4974539;28;20197;-77
2021/03/30 04:18:45;;;;;;;1.83;1.67;;;9.00;99.90;;;;;;4973886;28;20268;-76
2021/03/30 04:21:26;;;;;;;2.83;2.63;;;9.10;99.90;;;;;;4974226;28;20610;-76
2021/03/30 04:23:52;;;;;;;4.07;1.73;;;8.80;99.90;;;;;;4974154;28;20177;-76
2021/03/30 04:26:19;;;;;;;2.28;1.85;;;8.90;99.90;;;;;;4974389;28;20245;-76
2021/03/30 04:28:45;;;;;;;2.13;1.83;;;8.90;99.90;;;;;;4973949;28;20170;-78
2021/03/30 04:31:11;;;;;;;1.65;1.55;;;9.00;99.90;;;;;;4974046;28;20166;-76
2021/03/30 04:33:36;;;;;;;5.82;1.48;;;9.10;99.90;;;;;;4974036;28;20154;-76
2021/03/30 04:36:02;;;;;;;2.63;2.25;;;9.20;99.90;;;;;;4974103;28;20185;-77
2021/03/30 04:38:28;;;;;;;2.75;2.40;;;9.10;99.90;;;;;;4974012;28;20272;-77
2021/03/30 04:40:54;;;;;;;3.13;2.15;;;9.10;99.90;;;;;;4975436;28;20544;-77
2021/03/30 04:43:23;;;;;;;2.20;1.70;;;9.10;99.90;;;;;;4977845;28;20674;-76
2021/03/30 04:45:49;;;;;;;2.15;2.05;;;9.10;99.90;;;;;;4977539;28;20181;-76
2021/03/30 04:48:15;;;;;;;6.47;3.30;;;9.00;99.90;;;;;;4977656;28;20201;-76
2021/03/30 04:50:41;;;;;;;2.92;2.72;;;9.00;99.90;;;;;;4960161;28;20848;-76
2021/03/30 04:53:07;;;;;;;3.00;1.77;;;9.10;99.90;;;;;;4977866;28;20158;-76
2021/03/30 04:55:33;;;;;;;1.15;1.08;;;9.20;99.90;;;;;;4977502;28;20161;-77
2021/03/30 04:57:58;;;;;;;2.92;2.33;;;9.20;99.90;;;;;;4978007;28;20241;-77
2021/03/30 05:00:24;;;;;;;6.45;2.88;;;9.40;99.90;;;;;;4977592;28;20190;-76
2021/03/30 05:02:50;;;;;;;5.80;3.55;;;9.20;99.90;;;;;;4977297;28;20205;-77
2021/03/30 05:05:16;;;;;;;6.70;4.28;;;9.30;99.90;;;;;;4977198;28;20162;-77
2021/03/30 05:07:42;;;;;;;6.10;3.70;;;9.30;99.90;;;;;;4977332;28;20685;-77
2021/03/30 05:10:08;;;;;;;28.30;8.95;;;9.30;99.90;;;;;;4977201;28;20157;-76
2021/03/30 05:12:34;;;;;;;28.13;13.85;;;9.30;99.90;;;;;;4959799;28;20205;-76
2021/03/30 05:14:59;;;;;;;55.92;6.13;;;9.10;99.90;;;;;;4976899;28;20173;-76
2021/03/30 05:17:25;;;;;;;13.95;5.75;;;9.00;99.90;;;;;;4976808;28;20209;-77
2021/03/30 05:19:50;;;;;;;12.07;4.95;;;9.10;99.90;;;;;;4977058;28;20174;-76
2021/03/30 05:22:16;;;;;;;8.10;4.80;;;9.10;99.90;;;;;;4977046;28;20166;-77
2021/03/30 05:24:41;;;;;;;11.65;3.72;;;9.10;99.90;;;;;;4977170;28;20170;-76
2021/03/30 05:27:07;;;;;;;5.05;3.15;;;9.10;99.90;;;;;;4976758;28;20685;-76
2021/03/30 05:29:43;;;;;;;6.95;2.92;;;9.10;99.90;;;;;;4976642;28;20692;-76
2021/03/30 05:32:12;;;;;;;3.28;1.95;;;9.20;99.90;;;;;;4976827;28;20174;-76
2021/03/30 05:34:38;;;;;;;3.83;2.35;;;9.20;99.90;;;;;;4976717;28;20177;-76
2021/03/30 05:37:04;;;;;;;4.97;2.20;;;9.10;99.90;;;;;;4976486;28;20259;-78
2021/03/30 05:39:31;;;;;;;2.72;2.53;;;9.10;99.90;;;;;;4976801;28;20173;-76
2021/03/30 05:41:56;;;;;;;4.50;2.78;;;9.10;99.90;;;;;;4976295;28;20176;-76
2021/03/30 05:44:22;;;;;;;4.43;3.50;;;9.10;99.90;;;;;;4976584;28;20248;-76
2021/03/30 05:47:01;;;;;;;1.92;1.83;;;9.30;99.90;;;;;;4976399;28;20714;-76
2021/03/30 05:49:27;;;;;;;5.50;3.85;;;9.30;99.90;;;;;;4976403;28;20165;-75
2021/03/30 05:51:54;;;;;;;18.40;2.72;;;9.40;99.90;;;;;;4975237;28;20170;-77
2021/03/30 05:54:20;;;;;;;9.43;2.30;;;9.40;99.90;;;;;;4976361;28;20237;-77
2021/03/30 05:56:46;;;;;;;4.15;1.80;;;9.50;99.90;;;;;;4976045;28;20689;-77
2021/03/30 05:59:13;;;;;;;2.33;1.98;;;9.40;99.90;;;;;;4976195;28;20202;-76
2021/03/30 06:01:40;;;;;;;1.95;1.85;;;9.50;99.90;;;;;;4976119;28;20177;-76
2021/03/30 06:04:09;;;;;;;7.32;3.53;;;9.50;99.90;;;;;;4976173;28;20174;-77
2021/03/30 06:06:36;;;;;;;9.40;3.60;;;9.30;99.90;;;;;;4975997;28;20158;-77
2021/03/30 06:09:06;;;;;;;14.15;2.17;;;9.50;99.90;;;;;;4976275;28;21012;-76
2021/03/30 06:11:32;;;;;;;3.67;2.08;;;9.70;99.90;;;;;;4976021;28;20595;-77
2021/03/30 06:13:59;;;;;;;1.63;1.52;;;9.70;99.90;;;;;;4975844;28;20531;-79
2021/03/30 06:16:36;;;;;;;6.45;3.95;;;9.60;99.90;;;;;;4976021;28;20613;-77
2021/03/30 06:19:18;;;;;;;2.65;2.45;;;9.70;99.90;;;;;;4975723;28;20213;-76
2021/03/30 06:21:57;;;;;;;2.45;1.25;;;9.90;99.90;;;;;;4958185;28;20637;-77
2021/03/30 06:24:22;;;;;;;3.20;2.90;;;10.10;99.90;;;;;;4975904;28;20176;-76
2021/03/30 06:26:49;;;;;;;7.03;3.28;;;10.20;99.90;;;;;;4974028;28;20661;-74
2021/03/30 06:29:35;;;;;;;2.45;2.35;;;10.20;99.90;;;;;;4970538;28;20229;-77
2021/03/30 06:32:03;;;;;;;1.60;1.45;;;10.40;99.90;;;;;;4971505;28;20194;-77
2021/03/30 06:34:29;;;;;;;2.35;2.25;;;10.60;99.90;;;;;;4956201;29;20170;-76
2021/03/30 06:36:55;;;;;;;17.20;3.38;;;10.70;99.90;;;;;;4965424;28;20260;-76
2021/03/30 06:39:35;;;;;;;2.67;2.47;;;10.80;99.90;;;;;;4937158;29;20167;-76
2021/03/30 06:44:35;;;;;;;5.78;4.40;;;11.00;99.90;;;;;;4961634;28;20188;-75
2021/03/30 06:47:07;;;;;;;3.95;1.75;;;11.20;99.90;;;;;;4975072;28;20237;-75
2021/03/30 06:49:36;;;;;;;4.25;2.47;;;11.30;99.90;;;;;;4957008;28;20221;-76
2021/03/30 06:52:16;;;;;;;6.85;2.90;;;11.40;99.90;;;;;;4956095;29;20174;-75
2021/03/30 06:55:01;;;;;;;5.63;3.20;;;11.40;99.90;;;;;;4955593;29;20173;-76
2021/03/30 06:57:45;;;;;;;2.35;2.15;;;11.50;99.90;;;;;;4955454;29;20285;-77
2021/03/30 07:00:24;;;;;;;3.85;2.22;;;11.60;99.90;;;;;;4955614;29;20217;-74
2021/03/30 07:02:53;;;;;;;2.00;1.88;;;11.70;99.90;;;;;;4955461;28;20197;-75
2021/03/30 07:05:24;;;;;;;6.60;3.55;;;11.80;99.90;;;;;;4955690;29;20175;-76
2021/03/30 07:08:17;;;;;;;31.20;3.83;;;11.90;99.90;;;;;;4958114;28;20208;-77
2021/03/30 07:10:48;;;;;;;11.00;4.30;;;12.00;99.90;;;;;;4972525;28;20781;-77
2021/03/30 07:13:22;;;;;;;3.35;3.08;;;12.10;99.90;;;;;;4974285;28;20217;-77
2021/03/30 07:15:57;;;;;;;4.68;3.65;;;12.20;99.90;;;;;;4974987;28;20208;-88
2021/03/30 07:18:36;;;;;;;14.52;3.38;;;12.20;99.90;;;;;;4974767;28;20746;-77
2021/03/30 07:21:03;;;;;;;9.65;4.13;;;12.40;99.90;;;;;;4957339;28;20589;-78
2021/03/30 07:23:31;;;;;;;3.15;2.50;;;12.50;99.90;;;;;;4956995;28;20579;-76
2021/03/30 07:26:14;;;;;;;12.73;4.43;;;12.60;99.90;;;;;;4974653;28;20245;-77
2021/03/30 07:28:49;;;;;;;4.43;3.17;;;12.60;99.90;;;;;;4974010;28;20352;-75
2021/03/30 07:31:22;;;;;;;28.30;4.80;;;12.80;99.90;;;;;;4974421;28;20158;-76
2021/03/30 07:33:55;;;;;;;8.75;3.40;;;12.90;99.90;;;;;;4974509;28;20185;-75
2021/03/30 07:36:21;;;;;;;7.43;3.60;;;13.10;99.90;;;;;;4974431;28;20154;-76
2021/03/30 07:38:53;;;;;;;16.45;5.13;;;13.20;99.90;;;;;;4956874;28;20256;-78
2021/03/30 07:41:22;;;;;;;7.95;3.40;;;13.40;99.90;;;;;;4974420;28;20238;-77
2021/03/30 07:43:50;;;;;;;2.97;2.70;;;13.50;99.90;;;;;;4963380;28;20257;-83
2021/03/30 07:46:17;;;;;;;8.65;3.67;;;13.70;99.90;;;;;;4950611;29;20223;-81
2021/03/30 07:48:43;;;;;;;6.07;3.05;;;13.90;99.90;;;;;;4943360;28;20241;-82
2021/03/30 07:51:13;;;;;;;4.25;3.63;;;14.10;99.90;;;;;;4946912;29;20178;-88
2021/03/30 07:53:45;;;;;;;13.82;3.65;;;14.20;99.90;;;;;;4963517;29;20179;-88
2021/03/30 07:56:28;;;;;;;6.80;4.32;;;14.30;99.90;;;;;;4943648;29;20692;-89
2021/03/30 07:58:55;;;;;;;5.32;3.00;;;14.50;99.90;;;;;;4943850;29;20206;-90
2021/03/30 08:01:24;;;;;;;13.13;3.72;;;14.70;99.90;;;;;;4944431;29;20636;-89
2021/03/30 08:03:52;;;;;;;3.90;3.08;;;14.70;99.90;;;;;;4943865;29;20167;-88
2021/03/30 08:06:28;;;;;;;4.80;2.55;;;14.80;99.90;;;;;;4960637;29;20167;-89
2021/03/30 08:09:04;;;;;;;6.07;3.17;;;14.80;99.90;;;;;;4960486;29;20166;-90
2021/03/30 08:11:49;;;;;;;14.48;4.28;;;14.90;99.90;;;;;;4941250;29;20181;-78
2021/03/30 08:14:26;;;;;;;11.82;4.22;;;15.00;99.90;;;;;;4945857;29;20551;-77
2021/03/30 08:16:53;;;;;;;4.30;3.00;;;15.20;99.90;;;;;;4954770;29;20241;-77
2021/03/30 08:19:19;;;;;;;4.10;2.78;;;15.40;99.90;;;;;;4937371;29;20175;-78
2021/03/30 08:22:06;;;;;;;6.53;3.78;;;15.60;99.90;;;;;;4951887;29;20171;-78
2021/03/30 08:24:44;;;;;;;2.33;1.85;;;15.90;99.90;;;;;;4934078;29;20672;-77
2021/03/30 08:27:31;;;;;;;4.13;2.88;;;16.10;99.90;;;;;;4953062;29;20204;-77
2021/03/30 08:30:04;;;;;;;7.55;4.30;;;16.30;99.90;;;;;;4953380;29;20163;-76
2021/03/30 08:32:32;;;;;;;5.55;2.95;;;16.40;99.90;;;;;;4936608;29;20182;-76
2021/03/30 08:34:58;;;;;;;4.75;2.58;;;16.50;99.90;;;;;;4954003;28;20179;-77
2021/03/30 08:37:24;;;;;;;6.45;2.63;;;16.60;99.90;;;;;;4953613;28;20246;-76
2021/03/30 08:39:50;;;;;;;4.53;2.97;;;16.80;99.90;;;;;;4953469;29;20321;-76
2021/03/30 08:42:20;;;;;;;11.00;3.58;;;16.90;99.90;;;;;;4941984;28;20178;-77
2021/03/30 08:45:09;;;;;;;3.15;2.45;;;17.10;99.90;;;;;;4959267;28;20649;-78
2021/03/30 08:47:42;;;;;;;8.70;3.28;;;17.20;99.90;;;;;;4952410;28;20311;-77
2021/03/30 08:50:27;;;;;;;2.92;2.72;;;17.30;99.90;;;;;;4940543;29;20623;-77
2021/03/30 08:52:55;;;;;;;10.10;3.42;;;17.40;99.90;;;;;;4945695;28;20163;-77
2021/03/30 08:55:32;;;;;;;7.18;5.47;;;17.50;99.90;;;;;;4942709;29;20832;-77
2021/03/30 08:57:59;;;;;;;10.13;2.85;;;17.80;99.90;;;;;;4933069;28;20225;-77
2021/03/30 09:00:25;;;;;;;4.93;3.65;;;18.00;99.90;;;;;;4945394;29;20725;-77
2021/03/30 09:02:58;;;;;;;7.35;2.53;;;18.30;99.30;;;;;;4952826;29;20170;-77
2021/03/30 09:05:24;;;;;;;1.92;1.83;;;18.40;96.70;;;;;;4935618;28;20861;-77
2021/03/30 09:07:50;;;;;;;5.32;2.63;;;18.40;95.30;;;;;;4954439;29;20230;-81
2021/03/30 09:10:16;;;;;;;3.75;2.35;;;18.50;94.20;;;;;;4954557;29;20155;-80
2021/03/30 09:12:44;;;;;;;5.70;2.08;;;18.60;94.20;;;;;;4953893;29;20175;-80
2021/03/30 09:15:12;;;;;;;2.15;2.05;;;18.70;94.00;;;;;;4935974;29;20192;-80
2021/03/30 09:18:00;;;;;;;2.80;2.17;;;18.90;93.40;;;;;;4936911;29;20289;-80
2021/03/30 09:20:28;;;;;;;3.58;1.98;;;18.90;93.30;;;;;;4937923;29;20531;-81
2021/03/30 09:22:58;;;;;;;2.47;1.73;;;18.80;93.70;;;;;;4953887;29;20726;-81
2021/03/30 09:25:28;;;;;;;5.32;2.15;;;18.80;92.50;;;;;;4954218;29;20181;-82
2021/03/30 09:27:54;;;;;;;3.05;2.13;;;19.10;92.20;;;;;;4940036;29;20564;-78
2021/03/30 09:30:21;;;;;;;10.95;2.00;;;19.10;90.70;;;;;;4957572;29;20308;-78
2021/03/30 09:32:50;;;;;;;2.42;1.67;;;19.00;90.90;;;;;;4957715;29;20669;-77
2021/03/30 09:35:18;;;;;;;1.10;1.00;;;19.00;89.60;;;;;;4957624;29;20166;-78
2021/03/30 09:37:51;;;;;;;2.08;1.95;;;19.20;87.90;;;;;;4956884;29;20202;-78
2021/03/30 09:40:21;;;;;;;1.77;1.05;;;19.40;86.70;;;;;;4957215;29;20166;-78
2021/03/30 09:42:47;;;;;;;2.00;1.27;;;19.40;86.60;;;;;;4957260;29;20165;-78
2021/03/30 09:45:15;;;;;;;1.55;1.42;;;19.50;86.60;;;;;;4957261;29;20182;-78
2021/03/30 09:47:42;;;;;;;2.60;1.40;;;19.50;86.60;;;;;;4956877;29;20237;-78
2021/03/30 09:50:09;;;;;;;1.27;1.17;;;19.60;87.30;;;;;;4957137;29;20253;-78
2021/03/30 09:52:37;;;;;;;3.88;1.98;;;19.80;85.80;;;;;;4939638;29;20660;-77
2021/03/30 09:55:05;;;;;;;2.20;1.17;;;19.90;86.60;;;;;;4957113;29;20163;-78
2021/03/30 09:57:31;;;;;;;1.85;1.63;;;20.10;86.80;;;;;;4956964;29;20277;-77
2021/03/30 09:59:58;;;;;;;1.85;1.48;;;20.20;82.20;;;;;;4956484;29;20187;-75
2021/03/30 10:02:32;;;;;;;0.73;0.73;;;20.20;80.70;;;;;;4956687;29;20233;-78
2021/03/30 10:05:00;;;;;;;2.22;1.63;;;20.00;80.20;;;;;;4956760;29;20166;-76
2021/03/30 10:07:33;;;;;;;0.50;0.50;;;19.60;79.40;;;;;;4939178;28;20598;-76
2021/03/30 10:10:11;;;;;;;4.68;2.13;;;19.70;78.90;;;;;;4967230;28;20174;-76
2021/03/30 10:12:56;;;;;;;1.45;1.35;;;19.80;77.70;;;;;;4965119;28;20166;-78
2021/03/30 10:15:40;;;;;;;2.85;1.15;;;19.90;77.70;;;;;;4951771;28;20734;-79
2021/03/30 10:18:09;;;;;;;1.52;1.23;;;20.00;76.20;;;;;;4935692;28;20232;-78
2021/03/30 10:20:48;;;;;;;2.63;1.50;;;20.10;75.10;;;;;;4941854;28;20510;-79
2021/03/30 10:23:27;;;;;;;2.42;2.17;;;20.00;76.80;;;;;;4943702;28;20192;-79
2021/03/30 10:25:53;;;;;;;1.13;1.10;;;20.00;75.30;;;;;;4964259;28;20174;-77
2021/03/30 10:28:32;;;;;;;1.02;0.93;;;20.00;74.60;;;;;;4971359;28;20272;-78
2021/03/30 10:33:43;;;;;;;1.77;1.35;;;20.20;73.90;;;;;;4956683;29;20183;-77
2021/03/30 10:36:13;;;;;;;8.70;2.83;;;20.30;74.30;;;;;;4957235;29;20710;-77
2021/03/30 10:38:40;;;;;;;2.78;1.90;;;20.30;75.30;;;;;;4955410;28;20543;-78
2021/03/30 10:41:08;;;;;;;1.10;1.10;;;20.30;74.70;;;;;;4938607;29;20526;-78
2021/03/30 10:43:34;;;;;;;0.65;0.65;;;20.30;73.70;;;;;;4964679;28;20178;-77
2021/03/30 10:46:00;;;;;;;1.00;1.00;;;20.30;73.50;;;;;;4975517;28;20213;-76
2021/03/30 10:48:25;;;;;;;2.20;1.60;;;20.40;73.30;;;;;;4975534;28;20245;-77
2021/03/30 10:50:53;;;;;;;1.48;1.20;;;20.30;75.60;;;;;;4975197;28;20217;-79
2021/03/30 10:53:20;;;;;;;0.80;0.80;;;20.50;73.50;;;;;;4974712;28;20181;-78
2021/03/30 10:55:46;;;;;;;1.25;1.02;;;20.40;74.10;;;;;;4957203;28;20182;-78
2021/03/30 10:58:13;;;;;;;3.05;0.77;;;20.40;74.60;;;;;;4974784;28;20202;-78
2021/03/30 11:00:40;;;;;;;0.55;0.55;;;20.50;74.10;;;;;;4967914;28;20181;-79
2021/03/30 11:03:06;;;;;;;1.10;1.00;;;20.60;76.20;;;;;;4938849;29;20236;-78
2021/03/30 11:05:34;;;;;;;0.95;0.90;;;20.70;76.30;;;;;;4955448;29;20639;-78
2021/03/30 11:08:00;;;;;;;1.88;1.65;;;20.80;76.10;;;;;;4938500;29;20194;-77
2021/03/30 11:10:26;;;;;;;1.02;0.93;;;20.90;76.10;;;;;;4955393;29;20569;-78
2021/03/30 11:12:51;;;;;;;1.00;0.75;;;20.90;77.00;;;;;;4955385;29;20170;-77
2021/03/30 11:15:17;;;;;;;1.45;1.35;;;21.00;76.90;;;;;;4955593;29;20201;-77
2021/03/30 11:17:43;;;;;;;6.63;1.88;;;21.10;76.90;;;;;;4955256;29;20282;-79
2021/03/30 11:20:12;;;;;;;1.40;0.90;;;20.90;77.80;;;;;;4955527;29;20163;-78
2021/03/30 11:22:42;;;;;;;3.63;1.35;;;20.90;78.50;;;;;;4955368;29;20183;-78
2021/03/30 11:25:09;;;;;;;1.23;1.10;;;21.00;78.60;;;;;;4955333;29;20173;-77
2021/03/30 11:27:35;;;;;;;0.60;0.60;;;21.10;77.70;;;;;;4959909;28;20550;-80
2021/03/30 11:37:35;;;;;;;1.00;0.98;;;21.30;77.20;;;;;;4974492;28;20292;-83
2021/03/30 11:40:01;;;;;;;3.70;1.05;;;21.40;76.90;;;;;;4974958;28;20270;-83
2021/03/30 11:42:26;;;;;;;1.08;1.02;;;21.40;76.60;;;;;;4972496;28;20228;-83
2021/03/30 11:44:52;;;;;;;5.72;2.10;;;21.50;77.00;;;;;;4965623;28;20641;-83
2021/03/30 11:47:18;;;;;;;0.98;0.88;;;21.40;77.20;;;;;;4974101;28;20284;-83
2021/03/30 11:49:44;;;;;;;1.60;1.25;;;21.50;77.40;;;;;;4957105;28;20170;-82
2021/03/30 11:52:10;;;;;;;3.80;1.40;;;21.50;76.70;;;;;;4956829;28;20225;-82
2021/03/30 11:54:36;;;;;;;2.45;1.85;;;21.70;76.30;;;;;;4968077;28;20537;-83
2021/03/30 11:57:03;;;;;;;1.27;1.17;;;21.80;75.00;;;;;;4956649;28;20197;-83
2021/03/30 11:59:29;;;;;;;1.70;1.50;;;21.80;75.90;;;;;;4974533;28;20176;-83
2021/03/30 12:01:55;;;;;;;0.55;0.52;;;21.90;76.00;;;;;;4950569;28;20174;-82
2021/03/30 12:04:20;;;;;;;3.15;1.10;;;21.90;75.50;;;;;;4959354;28;20202;-82
2021/03/30 12:06:46;;;;;;;2.08;1.25;;;22.00;75.00;;;;;;4954514;29;20661;-82
2021/03/30 12:09:12;;;;;;;0.57;0.57;;;21.80;75.10;;;;;;4937223;29;20178;-82
2021/03/30 12:11:38;;;;;;;3.63;1.25;;;21.90;75.00;;;;;;4937147;29;20217;-82
2021/03/30 12:14:03;;;;;;;1.83;1.48;;;22.00;75.10;;;;;;4932071;29;20218;-81
2021/03/30 12:16:29;;;;;;;3.63;2.20;;;22.10;74.10;;;;;;4930738;29;20185;-81
2021/03/30 12:18:56;;;;;;;0.60;0.52;;;22.20;74.60;;;;;;4937314;29;20268;-82
2021/03/30 12:21:22;;;;;;;0.45;0.45;;;22.20;70.60;;;;;;4936894;29;20215;-81
2021/03/30 12:23:48;;;;;;;13.38;0.75;;;22.10;66.40;;;;;;4954831;29;20234;-81
2021/03/30 12:26:14;;;;;;;1.50;0.55;;;22.10;66.10;;;;;;4954300;29;20194;-81
2021/03/30 12:28:40;;;;;;;2.08;1.00;;;22.30;64.40;;;;;;4953978;29;20196;-81
2021/03/30 12:31:06;;;;;;;0.43;0.40;;;22.20;65.90;;;;;;4937092;29;20167;-82
2021/03/30 12:33:31;;;;;;;0.35;0.22;;;22.10;66.00;;;;;;4936979;29;20166;-81
2021/03/30 12:35:57;;;;;;;2.58;1.20;;;22.20;65.40;;;;;;4937041;29;20237;-81
2021/03/30 12:38:23;;;;;;;1.00;0.63;;;22.30;64.10;;;;;;4955634;28;20954;-80
2021/03/30 12:40:49;;;;;;;0.22;0.22;;;22.20;64.20;;;;;;4958355;28;20246;-79
2021/03/30 12:43:14;;;;;;;0.40;0.40;;;22.30;65.90;;;;;;4960678;28;20212;-80
2021/03/30 12:45:40;;;;;;;3.15;1.23;;;22.50;64.80;;;;;;4950765;29;20197;-80
2021/03/30 12:48:06;;;;;;;1.98;0.70;;;22.60;63.30;;;;;;4970074;28;20205;-79
2021/03/30 12:50:33;;;;;;;0.35;0.35;;;22.70;62.80;;;;;;4959627;28;20573;-79
2021/03/30 12:53:00;;;;;;;0.30;0.30;;;22.80;62.20;;;;;;4963914;28;20181;-79
2021/03/30 12:55:26;;;;;;;0.75;0.60;;;23.00;63.20;;;;;;4973135;28;20626;-79
2021/03/30 12:57:51;;;;;;;0.45;0.45;;;23.10;61.70;;;;;;4960239;28;20265;-80
2021/03/30 13:00:17;;;;;;;0.30;0.30;;;23.20;59.80;;;;;;4954049;29;20151;-78
2021/03/30 13:02:43;;;;;;;0.40;0.40;;;23.00;59.20;;;;;;4956938;28;20225;-78
2021/03/30 13:05:10;;;;;;;1.23;0.45;;;23.00;60.00;;;;;;4957768;29;20476;-76
2021/03/30 13:07:36;;;;;;;0.30;0.30;;;22.80;60.50;;;;;;4968098;28;20657;-78
2021/03/30 13:10:03;;;;;;;0.20;0.20;;;22.70;60.40;;;;;;4976829;28;20673;-78
2021/03/30 13:12:31;;;;;;;0.38;0.38;;;22.80;59.80;;;;;;4957815;28;20664;-77